Wednesday, February 21, 2018, 8:16 PM EST
Back to Local

KFDK, Frederick, Frederick Municipal Airport

Location: Frederick, MD, United States Lat: 39.417
Local Time: 8:16 PM EST ( 1:16 GMT) Lon: -77.374
Time Zone: US/Eastern Elev: 301 ft

Show me the last for .
Show Decoded

2018-02-21 19:50 METAR KFDK 220050Z 22007KT 10SM BKN065 OVC110 21/21 A3035 =
2018-02-21 18:47 METAR KFDK 212347Z 00000KT 10SM BKN075 OVC085 21/21 A3031 =
2018-02-21 17:47 METAR KFDK 212247Z 00000KT 10SM SCT050 SCT060 BKN085 22/18 A3030 =
2018-02-21 16:47 METAR KFDK 212147Z 20010KT 10SM VCSH SCT070 BKN090 27/15 A3025 =
2018-02-21 15:47 METAR KFDK 212047Z 21015G23KT 10SM SKC 25/15 A3026 =
2018-02-21 14:47 METAR KFDK 211947Z 21015G20KT 10SM SKC 28/14 A3025 =
2018-02-21 13:47 METAR KFDK 211847Z 21015G21KT 10SM SKC 28/15 A3027 =
2018-02-21 12:47 METAR KFDK 211747Z 21012G18KT 10SM SKC 27/15 A3029 =
2018-02-21 11:47 METAR KFDK 211647Z 21012G18KT 10SM BKN090 23/15 A3033 =
2018-02-21 10:47 METAR KFDK 211547Z 21013KT 10SM SKC 22/16 A3034 =
2018-02-21 09:47 METAR KFDK 211447Z 21013G17KT 10SM BKN090 19/17 A3035 =
2018-02-21 08:49 METAR KFDK 211349Z 27004KT 10SM SCT090 16/16 A3036 =
2018-02-21 07:47 METAR KFDK 211247Z 00000KT 10SM MIFG SKC 12/12 A3034 =
2018-02-21 06:53 METAR KFDK 211153Z 00000KT 10SM MIFG SKC 10/10 A3033 =
2018-02-21 06:35 METAR KFDK 211135Z AUTO 00000KT 1/4SM FG OVC006 10/10 A3033 RMK AO2 =
2018-02-21 06:15 METAR KFDK 211115Z AUTO 00000KT 1/2SM FG BKN003 OVC008 11/11 A3033 RMK AO2 =
2018-02-21 05:35 METAR KFDK 211035Z AUTO 00000KT 1/4SM FG BKN005 10/10 A3033 RMK AO2 =
2018-02-21 05:15 METAR KFDK 211015Z AUTO 00000KT 1SM BR VV007 11/11 A3032 RMK AO2 =
2018-02-21 04:55 METAR KFDK 210955Z AUTO 00000KT 3/4SM BR VV005 11/11 A3032 RMK AO2 =
2018-02-21 04:35 METAR KFDK 210935Z AUTO 00000KT 2 1/2SM BR CLR 11/11 A3032 RMK AO2 VIS 3/4V5 =
2018-02-21 04:15 METAR KFDK 210915Z AUTO 00000KT 7SM CLR 12/12 A3032 RMK AO2 =
2018-02-21 03:55 METAR KFDK 210855Z AUTO 26003KT 7SM CLR 12/12 A3032 RMK AO2 =
2018-02-21 03:35 METAR KFDK 210835Z AUTO 26003KT 7SM CLR 12/12 A3032 RMK AO2 =
2018-02-21 03:15 METAR KFDK 210815Z AUTO 25003KT 10SM CLR 12/12 A3032 RMK AO2 =
2018-02-21 02:55 METAR KFDK 210755Z AUTO 00000KT 10SM CLR 12/12 A3032 RMK AO2 =
2018-02-21 02:35 METAR KFDK 210735Z AUTO 22003KT 10SM CLR 12/12 A3032 RMK AO2 =
2018-02-21 02:15 METAR KFDK 210715Z AUTO 00000KT 10SM CLR 13/13 A3033 RMK AO2 =
2018-02-21 01:55 METAR KFDK 210655Z AUTO 21004KT 10SM CLR 13/13 A3033 RMK AO2 =
2018-02-21 01:35 METAR KFDK 210635Z AUTO 20004KT 10SM CLR 13/13 A3033 RMK AO2 =
2018-02-21 01:15 METAR KFDK 210615Z AUTO 20004KT 10SM CLR 15/14 A3033 RMK AO2 =
2018-02-21 00:55 METAR KFDK 210555Z AUTO 20005KT 10SM CLR 15/15 A3033 RMK AO2 =
2018-02-21 00:35 METAR KFDK 210535Z AUTO 19003KT 10SM CLR 16/12 A3033 RMK AO2 =
2018-02-21 00:15 METAR KFDK 210515Z AUTO 19006KT 10SM CLR 17/12 A3033 RMK AO2 =
2018-02-20 23:55 METAR KFDK 210455Z AUTO 19007KT 10SM CLR 17/12 A3033 RMK AO2 =
2018-02-20 23:35 METAR KFDK 210435Z AUTO 19007KT 10SM CLR 18/12 A3033 RMK AO2 =
2018-02-20 23:15 METAR KFDK 210415Z AUTO 19008KT 10SM CLR 18/12 A3033 RMK AO2 =
2018-02-20 22:55 METAR KFDK 210355Z AUTO 20007KT 10SM CLR 18/12 A3033 RMK AO2 =
2018-02-20 22:35 METAR KFDK 210335Z AUTO 19008KT 10SM CLR 18/12 A3033 RMK AO2 =
2018-02-20 22:15 METAR KFDK 210315Z AUTO 20009KT 10SM CLR 19/12 A3033 RMK AO2 =
2018-02-20 21:55 METAR KFDK 210255Z AUTO 20009G15KT 10SM CLR 20/12 A3033 RMK AO2 =
2018-02-20 21:35 METAR KFDK 210235Z AUTO 19008G15KT 10SM CLR 20/12 A3033 RMK AO2 =
2018-02-20 21:15 METAR KFDK 210215Z AUTO 19012G17KT 10SM CLR 20/12 A3032 RMK AO2 =
2018-02-20 20:55 METAR KFDK 210155Z AUTO 19011G19KT 10SM CLR 21/11 A3032 RMK AO2 =
2018-02-20 20:48 METAR KFDK 210148Z 20011G19KT 10SM SKC 21/12 A3032 =

Support USWX by starting your Amazon purchase here.